Ghent, Minnesota
Current Conditions -  °F | °C
As of 7:35 AM on Sunday 23 Nov 2014 (Local Time) from KMML Reporting Station
Broken Clouds Broken Clouds  
Wind Chill: 36°   Ceiling: 12000
Heat Index: 43°   Visibility: 10mi
Dew Point: 34°   Wind: 14mph
Humidity: 70%   Direction: 290°WNW
Pressure: 29.46"   Gusts: NA
Location:  44.51°N, 95.89°W
Report Text: KMML 231335Z AUTO 29012KT 10SM SCT075 BKN120 06/01 A2946 RMK AO1
Loading
Personal Weather Stations






























Interactive Weather Map New forecast layout! Learn more

10-Day Weather Forecast

Advertisements
Track Severe Weather on mobile